createdAt,value
2023-05-14T00:02:07.080Z,99.90
2023-05-14T00:04:36.773Z,99.90
2023-05-14T00:07:06.444Z,99.90
2023-05-14T00:09:36.967Z,99.90
2023-05-14T00:12:08.906Z,99.90
2023-05-14T00:14:38.462Z,99.90
2023-05-14T00:17:08.656Z,99.90
2023-05-14T00:19:38.234Z,99.90
2023-05-14T00:22:07.956Z,99.90
2023-05-14T00:24:38.307Z,99.90
2023-05-14T00:27:08.850Z,99.90
2023-05-14T00:29:38.443Z,99.90
2023-05-14T00:32:08.471Z,99.90
2023-05-14T00:34:38.267Z,99.90
2023-05-14T00:37:07.936Z,99.90
2023-05-14T00:39:37.597Z,99.90
2023-05-14T00:42:07.532Z,99.90
2023-05-14T00:44:38.321Z,99.90
2023-05-14T00:47:08.987Z,99.90
2023-05-14T00:49:41.619Z,99.90
2023-05-14T00:52:11.907Z,99.90
2023-05-14T00:54:41.698Z,99.90
2023-05-14T00:57:11.652Z,99.90
2023-05-14T00:59:43.435Z,99.90
2023-05-14T01:02:13.778Z,99.90
2023-05-14T01:04:43.612Z,99.90
2023-05-14T01:07:26.536Z,99.90
2023-05-14T01:10:10.900Z,99.90
2023-05-14T01:13:20.142Z,99.90
2023-05-14T01:15:50.843Z,99.90
2023-05-14T01:18:21.792Z,99.90
2023-05-14T01:20:54.287Z,99.90
2023-05-14T01:23:23.948Z,99.90
2023-05-14T01:25:53.648Z,99.90
2023-05-14T01:28:34.417Z,99.90
2023-05-14T01:31:15.878Z,99.90
2023-05-14T01:33:47.117Z,99.90
2023-05-14T01:36:17.243Z,99.90
2023-05-14T01:38:48.876Z,99.90
2023-05-14T01:41:20.351Z,99.90
2023-05-14T01:43:50.280Z,99.90
2023-05-14T01:46:23.478Z,99.90
2023-05-14T01:48:53.057Z,99.90
2023-05-14T01:51:22.749Z,99.90
2023-05-14T01:53:52.771Z,99.90
2023-05-14T01:56:25.202Z,99.90
2023-05-14T01:58:54.808Z,99.90
2023-05-14T02:01:24.873Z,99.90
2023-05-14T02:03:54.687Z,99.90
2023-05-14T02:06:24.390Z,99.90
2023-05-14T02:08:53.904Z,99.90
2023-05-14T02:11:23.607Z,99.90
2023-05-14T02:13:53.266Z,99.90
2023-05-14T02:16:22.863Z,99.90
2023-05-14T02:18:52.491Z,99.60
2023-05-14T02:21:22.339Z,99.20
2023-05-14T02:23:52.882Z,98.60
2023-05-14T02:26:23.149Z,98.40
2023-05-14T02:28:52.899Z,98.50
2023-05-14T02:31:22.702Z,98.40
2023-05-14T02:33:53.073Z,98.60
2023-05-14T02:36:22.652Z,98.70
2023-05-14T02:38:52.333Z,98.40
2023-05-14T02:41:23.165Z,97.80
2023-05-14T02:43:52.685Z,97.10
2023-05-14T02:46:22.350Z,96.80
2023-05-14T02:48:52.031Z,96.80
2023-05-14T02:51:23.120Z,96.50
2023-05-14T02:53:52.686Z,95.90
2023-05-14T02:56:22.924Z,95.70
2023-05-14T02:58:52.453Z,95.80
2023-05-14T03:01:22.756Z,95.70
2023-05-14T03:03:52.759Z,95.90
2023-05-14T03:06:22.241Z,95.60
2023-05-14T03:08:52.277Z,95.40
2023-05-14T03:11:22.292Z,95.60
2023-05-14T03:13:51.918Z,95.80
2023-05-14T03:16:21.531Z,95.50
2023-05-14T03:18:51.338Z,95.70
2023-05-14T03:21:21.067Z,95.70
2023-05-14T03:23:50.814Z,95.80
2023-05-14T03:26:20.354Z,95.60
2023-05-14T03:28:49.977Z,95.70
2023-05-14T03:31:19.613Z,95.50
2023-05-14T03:33:49.446Z,95.30
2023-05-14T03:36:19.074Z,95.30
2023-05-14T03:38:48.683Z,95.50
2023-05-14T03:41:20.141Z,95.20
2023-05-14T03:43:49.826Z,94.50
2023-05-14T03:46:19.395Z,94.50
2023-05-14T03:48:49.027Z,94.70
2023-05-14T03:51:18.771Z,95.20
2023-05-14T03:53:48.360Z,93.70
2023-05-14T03:56:18.068Z,93.60
2023-05-14T03:58:47.658Z,94.50
2023-05-14T04:01:17.394Z,95.80
2023-05-14T04:03:47.553Z,96.50
2023-05-14T04:06:17.860Z,97.30
2023-05-14T04:08:47.596Z,98.50
2023-05-14T04:11:17.123Z,99.00
2023-05-14T04:13:46.796Z,99.80
2023-05-14T04:16:16.436Z,99.90
2023-05-14T04:18:46.246Z,99.90
2023-05-14T04:21:16.017Z,99.90
2023-05-14T04:23:45.674Z,99.90
2023-05-14T04:26:15.201Z,99.90
2023-05-14T04:28:44.746Z,99.90
2023-05-14T04:31:15.024Z,99.90
2023-05-14T04:33:44.689Z,99.90
2023-05-14T04:36:14.364Z,99.90
2023-05-14T04:38:44.008Z,99.90
2023-05-14T04:41:13.612Z,99.90
2023-05-14T04:43:43.215Z,99.90
2023-05-14T04:46:13.272Z,99.90
2023-05-14T04:48:43.613Z,99.90
2023-05-14T04:51:13.303Z,99.90
2023-05-14T04:53:42.926Z,99.90
2023-05-14T04:56:12.696Z,99.90
2023-05-14T04:58:42.638Z,99.90
2023-05-14T05:01:12.335Z,99.90
2023-05-14T05:03:42.147Z,99.90
2023-05-14T05:06:11.899Z,99.90
2023-05-14T05:08:41.632Z,99.90
2023-05-14T05:11:11.263Z,99.90
2023-05-14T05:13:40.846Z,99.90
2023-05-14T05:16:10.660Z,99.90
2023-05-14T05:18:40.807Z,99.90
2023-05-14T05:21:10.522Z,99.90
2023-05-14T05:23:40.187Z,99.90
2023-05-14T05:26:09.889Z,99.90
2023-05-14T05:28:39.561Z,99.90
2023-05-14T05:31:09.693Z,99.90
2023-05-14T05:33:39.473Z,99.90
2023-05-14T05:36:09.235Z,99.90
2023-05-14T05:38:39.395Z,99.90
2023-05-14T05:41:09.288Z,99.90
2023-05-14T05:43:38.859Z,99.90
2023-05-14T05:46:09.306Z,99.90
2023-05-14T05:48:38.913Z,99.90
2023-05-14T05:51:08.548Z,99.90
2023-05-14T05:53:38.153Z,99.90
2023-05-14T05:56:08.595Z,99.90
2023-05-14T05:58:38.144Z,99.90
2023-05-14T06:01:08.246Z,99.90
2023-05-14T06:03:38.083Z,99.90
2023-05-14T06:06:08.101Z,99.90
2023-05-14T06:08:37.728Z,99.90
2023-05-14T06:11:07.506Z,99.90
2023-05-14T06:13:37.262Z,99.90
2023-05-14T06:16:07.094Z,99.90
2023-05-14T06:18:36.725Z,99.90
2023-05-14T06:21:06.526Z,99.90
2023-05-14T06:23:36.238Z,99.90
2023-05-14T06:26:05.946Z,99.90
2023-05-14T06:28:35.451Z,99.90
2023-05-14T06:31:04.980Z,99.70
2023-05-14T06:33:34.601Z,98.80
2023-05-14T06:36:07.459Z,98.70
2023-05-14T06:38:37.123Z,98.40
2023-05-14T06:41:06.729Z,97.90
2023-05-14T06:43:36.381Z,97.70
2023-05-14T06:46:05.992Z,96.60
2023-05-14T06:48:35.711Z,96.50
2023-05-14T06:51:05.564Z,96.80
2023-05-14T06:53:35.201Z,96.70
2023-05-14T06:56:04.860Z,96.90
2023-05-14T06:58:34.522Z,96.80
2023-05-14T07:01:04.180Z,96.00
2023-05-14T07:03:33.749Z,95.20
2023-05-14T07:06:03.355Z,95.50
2023-05-14T07:08:32.926Z,95.80
2023-05-14T07:11:02.492Z,95.90
2023-05-14T07:13:32.449Z,95.80
2023-05-14T07:16:02.107Z,94.50
2023-05-14T07:18:31.767Z,93.30
2023-05-14T07:21:01.502Z,93.90
2023-05-14T07:23:31.071Z,92.90
2023-05-14T07:26:00.733Z,92.70
2023-05-14T07:28:30.350Z,92.40
2023-05-14T07:31:00.155Z,91.50
2023-05-14T07:33:29.911Z,90.30
2023-05-14T07:35:59.552Z,89.20
2023-05-14T07:38:29.277Z,87.90
2023-05-14T07:40:58.823Z,88.50
2023-05-14T07:43:28.788Z,87.30
2023-05-14T07:45:58.423Z,87.10
2023-05-14T07:48:28.186Z,86.90
2023-05-14T07:50:57.853Z,84.40
2023-05-14T07:53:28.472Z,85.80
2023-05-14T07:55:58.174Z,84.10
2023-05-14T07:58:29.485Z,83.90
2023-05-14T08:00:59.347Z,83.90
2023-05-14T08:03:29.173Z,83.60
2023-05-14T08:05:58.738Z,82.40
2023-05-14T08:08:29.109Z,83.30
2023-05-14T08:10:58.762Z,81.90
2023-05-14T08:13:28.485Z,80.40
2023-05-14T08:15:58.190Z,81.90
2023-05-14T08:18:27.857Z,81.60
2023-05-14T08:20:57.875Z,80.80
2023-05-14T08:23:28.906Z,81.40
2023-05-14T08:25:58.555Z,78.80
2023-05-14T08:28:28.096Z,76.90
2023-05-14T08:30:57.776Z,78.00
2023-05-14T08:33:27.397Z,77.40
2023-05-14T08:35:57.930Z,75.30
2023-05-14T08:38:28.492Z,77.30
2023-05-14T08:41:02.505Z,78.10
2023-05-14T08:44:00.231Z,78.40
2023-05-14T08:46:31.846Z,77.60
2023-05-14T08:49:27.417Z,75.90
2023-05-14T08:51:58.103Z,77.00
2023-05-14T08:54:28.744Z,77.70
2023-05-14T08:56:58.465Z,76.00
2023-05-14T08:59:28.702Z,75.70
2023-05-14T09:02:03.086Z,75.00
2023-05-14T09:04:33.075Z,74.70
2023-05-14T09:07:04.243Z,75.80
2023-05-14T09:09:33.983Z,74.80
2023-05-14T09:12:03.941Z,75.80
2023-05-14T09:14:35.088Z,76.40
2023-05-14T09:17:05.191Z,77.80
2023-05-14T09:19:34.941Z,76.40
2023-05-14T09:22:10.108Z,76.20
2023-05-14T09:24:40.520Z,75.30
2023-05-14T09:27:11.747Z,74.80
2023-05-14T09:29:41.340Z,72.90
2023-05-14T09:32:12.510Z,72.20
2023-05-14T09:34:42.879Z,71.50
2023-05-14T09:37:12.747Z,72.20
2023-05-14T09:39:42.377Z,72.80
2023-05-14T09:42:12.311Z,73.30
2023-05-14T09:44:42.167Z,72.90
2023-05-14T09:47:11.831Z,72.70
2023-05-14T09:49:42.625Z,73.20
2023-05-14T09:52:13.780Z,73.40
2023-05-14T09:54:43.421Z,73.10
2023-05-14T09:57:13.014Z,73.60
2023-05-14T09:59:42.783Z,73.00
2023-05-14T10:02:28.991Z,73.20
2023-05-14T10:05:05.354Z,73.30
2023-05-14T10:07:53.451Z,72.90
2023-05-14T10:10:25.707Z,70.60
2023-05-14T10:13:05.759Z,69.30
2023-05-14T10:16:01.998Z,70.00
2023-05-14T10:18:35.379Z,69.00
2023-05-14T10:21:09.511Z,68.80
2023-05-14T10:23:39.853Z,66.90
2023-05-14T10:26:11.185Z,66.80
2023-05-14T10:28:41.056Z,67.50
2023-05-14T10:31:12.484Z,67.90
2023-05-14T10:33:52.803Z,69.10
2023-05-14T10:36:23.996Z,69.90
2023-05-14T10:38:58.994Z,69.70
2023-05-14T10:41:28.613Z,69.80
2023-05-14T10:44:01.296Z,69.40
2023-05-14T10:46:31.082Z,69.30
2023-05-14T10:49:02.143Z,69.80
2023-05-14T10:51:34.052Z,69.90
2023-05-14T10:54:03.805Z,70.20
2023-05-14T10:56:35.040Z,70.80
2023-05-14T10:59:05.283Z,71.30
2023-05-14T11:01:35.254Z,71.60
2023-05-14T11:04:06.147Z,72.00
2023-05-14T11:06:36.474Z,72.50
2023-05-14T11:09:06.865Z,73.20
2023-05-14T11:11:37.303Z,73.40
2023-05-14T11:14:08.418Z,73.30
2023-05-14T11:16:39.525Z,73.60
2023-05-14T11:19:09.244Z,73.90
2023-05-14T11:21:38.886Z,74.20
2023-05-14T11:24:09.094Z,74.70
2023-05-14T11:26:38.938Z,75.10
2023-05-14T11:29:08.804Z,75.40
2023-05-14T11:31:38.940Z,75.50
2023-05-14T11:34:10.222Z,75.90
2023-05-14T11:36:40.053Z,76.20
2023-05-14T11:39:09.920Z,76.60
2023-05-14T11:41:45.554Z,76.70
2023-05-14T11:44:15.368Z,76.90
2023-05-14T11:47:00.113Z,77.20
2023-05-14T11:49:32.085Z,77.50
2023-05-14T11:52:09.382Z,77.70
2023-05-14T11:54:39.449Z,78.30
2023-05-14T11:57:15.587Z,78.70
2023-05-14T11:59:45.387Z,79.20
2023-05-14T12:02:17.132Z,79.50
2023-05-14T12:04:51.531Z,79.90
2023-05-14T12:07:21.247Z,80.30
2023-05-14T12:09:51.740Z,80.60
2023-05-14T12:12:23.472Z,80.90
2023-05-14T12:14:54.689Z,81.30
2023-05-14T12:17:25.757Z,81.60
2023-05-14T12:19:55.558Z,82.00
2023-05-14T12:22:25.676Z,82.20
2023-05-14T12:24:59.913Z,82.40
2023-05-14T12:27:31.346Z,82.50
2023-05-14T12:30:20.781Z,82.80
2023-05-14T12:32:54.185Z,83.10
2023-05-14T12:35:24.458Z,83.50
2023-05-14T12:37:54.373Z,83.80
2023-05-14T12:40:24.145Z,84.00
2023-05-14T12:42:55.469Z,84.30
2023-05-14T12:45:26.373Z,85.40
2023-05-14T12:47:56.037Z,85.20
2023-05-14T12:50:26.542Z,85.60
2023-05-14T12:52:56.404Z,86.10
2023-05-14T12:55:26.107Z,86.70
2023-05-14T12:57:56.365Z,87.30
2023-05-14T13:00:26.333Z,87.80
2023-05-14T13:02:56.065Z,88.20
2023-05-14T13:05:25.992Z,88.40
2023-05-14T13:07:55.950Z,88.70
2023-05-14T13:10:25.506Z,89.20
2023-05-14T13:12:55.102Z,89.60
2023-05-14T13:15:25.473Z,89.90
2023-05-14T13:17:55.373Z,90.00
2023-05-14T13:20:25.314Z,90.40
2023-05-14T13:22:54.934Z,90.20
2023-05-14T13:25:25.030Z,90.30
2023-05-14T13:27:55.153Z,90.40
2023-05-14T13:30:24.784Z,90.60
2023-05-14T13:32:54.667Z,90.60
2023-05-14T13:35:24.672Z,90.70
2023-05-14T13:37:54.486Z,91.20
2023-05-14T13:40:24.205Z,91.00
2023-05-14T13:42:53.847Z,91.00
2023-05-14T13:45:23.675Z,91.20
2023-05-14T13:47:53.481Z,91.50
2023-05-14T13:50:23.892Z,91.60
2023-05-14T13:52:53.829Z,91.90
2023-05-14T13:55:23.598Z,91.90
2023-05-14T13:57:53.474Z,92.00
2023-05-14T14:00:23.640Z,92.00
2023-05-14T14:02:53.325Z,92.30
2023-05-14T14:05:23.284Z,92.50
2023-05-14T14:07:57.436Z,92.80
2023-05-14T14:10:38.270Z,93.00
2023-05-14T14:13:08.583Z,93.30
2023-05-14T14:15:39.124Z,93.40
2023-05-14T14:18:08.890Z,93.50
2023-05-14T14:20:38.546Z,93.60
2023-05-14T14:23:08.141Z,93.70
2023-05-14T14:25:40.258Z,93.70
2023-05-14T14:28:09.958Z,93.80
2023-05-14T14:30:39.589Z,93.80
2023-05-14T14:33:09.239Z,93.90
2023-05-14T14:35:39.434Z,94.00
2023-05-14T14:38:09.036Z,94.10
2023-05-14T14:40:38.693Z,94.20
2023-05-14T14:43:08.524Z,94.20
2023-05-14T14:45:38.240Z,94.30
2023-05-14T14:48:41.479Z,94.50
2023-05-14T14:51:11.877Z,94.80
2023-05-14T14:53:42.153Z,94.90
2023-05-14T14:56:11.832Z,95.00
2023-05-14T14:58:41.603Z,95.00
2023-05-14T15:01:11.422Z,95.10
2023-05-14T15:03:41.204Z,95.20
2023-05-14T15:06:11.029Z,95.30
2023-05-14T15:08:40.637Z,95.30
2023-05-14T15:11:10.915Z,95.30
2023-05-14T15:13:41.735Z,95.40
2023-05-14T15:16:11.464Z,95.40
2023-05-14T15:18:41.094Z,95.50
2023-05-14T15:21:10.886Z,95.50
2023-05-14T15:23:40.454Z,95.50
2023-05-14T15:26:10.286Z,95.70
2023-05-14T15:28:39.883Z,95.70
2023-05-14T15:31:09.647Z,95.80
2023-05-14T15:33:39.458Z,95.80
2023-05-14T15:36:09.346Z,95.80
2023-05-14T15:38:39.260Z,96.00
2023-05-14T15:41:09.219Z,96.10
2023-05-14T15:43:38.851Z,96.30
2023-05-14T15:46:08.522Z,96.40
2023-05-14T15:48:38.509Z,96.50
2023-05-14T15:51:08.100Z,96.60
2023-05-14T15:53:37.868Z,96.70
2023-05-14T15:56:07.761Z,96.70
2023-05-14T15:58:37.415Z,96.90
2023-05-14T16:01:07.261Z,97.00
2023-05-14T16:03:37.100Z,97.10
2023-05-14T16:06:07.248Z,97.20
2023-05-14T16:08:39.096Z,97.40
2023-05-14T16:11:09.255Z,97.50
2023-05-14T16:13:40.089Z,97.50
2023-05-14T16:16:10.037Z,97.50
2023-05-14T16:18:40.633Z,97.70
2023-05-14T16:21:10.521Z,97.80
2023-05-14T16:23:40.114Z,97.90
2023-05-14T16:26:09.732Z,97.90
2023-05-14T16:28:42.770Z,97.90
2023-05-14T16:31:12.418Z,98.00
2023-05-14T16:33:42.102Z,98.00
2023-05-14T16:36:12.167Z,98.20
2023-05-14T16:38:48.331Z,98.50
2023-05-14T16:41:26.815Z,98.80
2023-05-14T16:43:56.442Z,98.90
2023-05-14T16:46:26.082Z,98.40
2023-05-14T16:48:56.015Z,97.80
2023-05-14T16:51:25.788Z,97.00
2023-05-14T16:53:55.713Z,96.30
2023-05-14T16:56:25.505Z,96.00
2023-05-14T16:58:55.262Z,96.20
2023-05-14T17:01:24.863Z,96.30
2023-05-14T17:03:54.539Z,96.90
2023-05-14T17:06:24.185Z,96.60
2023-05-14T17:08:53.838Z,96.80
2023-05-14T17:11:23.587Z,96.90
2023-05-14T17:13:53.156Z,97.00
2023-05-14T17:16:23.623Z,96.90
2023-05-14T17:18:53.302Z,96.80
2023-05-14T17:21:22.943Z,96.80
2023-05-14T17:23:52.696Z,96.80
2023-05-14T17:26:22.898Z,96.70
2023-05-14T17:28:52.595Z,96.60
2023-05-14T17:31:23.533Z,96.40
2023-05-14T17:33:53.285Z,96.30
2023-05-14T17:36:22.944Z,96.10
2023-05-14T17:38:52.602Z,95.90
2023-05-14T17:41:23.431Z,95.70
2023-05-14T17:43:54.102Z,95.60
2023-05-14T17:46:23.931Z,95.50
2023-05-14T17:48:53.673Z,95.40
2023-05-14T17:51:23.476Z,95.50
2023-05-14T17:53:53.242Z,95.60
2023-05-14T17:56:22.853Z,95.60
2023-05-14T17:58:52.579Z,95.60
2023-05-14T18:01:22.144Z,95.70
2023-05-14T18:03:51.987Z,95.70
2023-05-14T18:06:21.635Z,95.70
2023-05-14T18:08:51.606Z,95.80
2023-05-14T18:11:21.262Z,95.80
2023-05-14T18:13:50.857Z,95.90
2023-05-14T18:16:20.528Z,95.90
2023-05-14T18:18:50.165Z,96.00
2023-05-14T18:21:19.882Z,95.90
2023-05-14T18:23:49.561Z,96.00
2023-05-14T18:26:19.304Z,96.00
2023-05-14T18:28:48.924Z,96.00
2023-05-14T18:31:18.592Z,96.10
2023-05-14T18:33:48.388Z,96.20
2023-05-14T18:36:19.545Z,96.30
2023-05-14T18:38:49.214Z,96.40
2023-05-14T18:41:19.003Z,96.40
2023-05-14T18:43:48.559Z,96.50
2023-05-14T18:46:18.347Z,96.50
2023-05-14T18:48:47.988Z,96.60
2023-05-14T18:51:17.678Z,96.60
2023-05-14T18:53:47.333Z,96.70
2023-05-14T18:56:17.241Z,96.80
2023-05-14T18:58:47.022Z,96.90
2023-05-14T19:01:16.603Z,96.90
2023-05-14T19:03:46.446Z,97.00
2023-05-14T19:06:16.205Z,97.10
2023-05-14T19:08:45.995Z,97.10
2023-05-14T19:11:15.711Z,97.10
2023-05-14T19:13:48.338Z,97.20
2023-05-14T19:16:18.329Z,97.40
2023-05-14T19:18:48.141Z,97.40
2023-05-14T19:21:17.968Z,97.50
2023-05-14T19:23:47.745Z,97.50
2023-05-14T19:26:17.716Z,97.50
2023-05-14T19:28:47.380Z,97.60
2023-05-14T19:31:17.524Z,97.60
2023-05-14T19:33:47.416Z,97.60
2023-05-14T19:36:17.210Z,97.60
2023-05-14T19:38:47.099Z,97.60
2023-05-14T19:41:16.975Z,97.70
2023-05-14T19:43:46.668Z,97.70
2023-05-14T19:46:16.896Z,97.60
2023-05-14T19:48:46.594Z,97.60
2023-05-14T19:51:16.490Z,97.90
2023-05-14T19:53:46.895Z,97.50
2023-05-14T19:56:17.278Z,97.40
2023-05-14T19:58:47.092Z,97.30
2023-05-14T20:01:16.939Z,97.30
2023-05-14T20:03:46.657Z,97.20
2023-05-14T20:06:16.755Z,97.20
2023-05-14T20:08:48.129Z,97.10
2023-05-14T20:11:19.703Z,97.00
2023-05-14T20:13:49.645Z,96.90
2023-05-14T20:16:19.289Z,96.80
2023-05-14T20:18:49.005Z,96.70
2023-05-14T20:21:21.259Z,96.50
2023-05-14T20:23:50.977Z,96.40
2023-05-14T20:26:20.686Z,96.30
2023-05-14T20:28:50.261Z,96.20
2023-05-14T20:31:20.889Z,96.10
2023-05-14T20:33:50.675Z,96.10
2023-05-14T20:36:20.338Z,96.30
2023-05-14T20:38:49.992Z,96.30
2023-05-14T20:41:19.616Z,96.40
2023-05-14T20:43:49.137Z,96.40
2023-05-14T20:46:18.837Z,96.30
2023-05-14T20:48:50.102Z,96.30
2023-05-14T20:51:19.673Z,96.30
2023-05-14T20:53:49.399Z,96.30
2023-05-14T20:56:19.233Z,96.20
2023-05-14T20:58:48.849Z,96.20
2023-05-14T21:01:18.520Z,96.20
2023-05-14T21:03:48.575Z,96.30
2023-05-14T21:06:18.239Z,96.30
2023-05-14T21:08:47.764Z,96.40
2023-05-14T21:11:17.361Z,96.50
2023-05-14T21:13:47.314Z,96.60
2023-05-14T21:16:16.988Z,96.70
2023-05-14T21:18:46.788Z,96.60
2023-05-14T21:21:16.512Z,96.70
2023-05-14T21:23:46.270Z,96.70
2023-05-14T21:26:15.922Z,96.80
2023-05-14T21:28:45.638Z,96.70
2023-05-14T21:31:15.268Z,96.70
2023-05-14T21:33:45.025Z,96.60
2023-05-14T21:36:14.726Z,96.50
2023-05-14T21:38:44.420Z,96.40
2023-05-14T21:41:13.983Z,96.40
2023-05-14T21:43:43.753Z,96.40
2023-05-14T21:46:13.728Z,96.40
2023-05-14T21:48:43.547Z,96.30
2023-05-14T21:51:13.198Z,96.20
2023-05-14T21:53:42.941Z,96.10
2023-05-14T21:56:12.819Z,96.10
2023-05-14T21:58:43.244Z,96.00
2023-05-14T22:01:13.247Z,96.00
2023-05-14T22:03:43.161Z,96.10
2023-05-14T22:06:12.850Z,96.10
2023-05-14T22:08:42.452Z,96.20
2023-05-14T22:11:11.976Z,96.30
2023-05-14T22:13:42.710Z,96.40
2023-05-14T22:16:14.394Z,96.50
2023-05-14T22:18:44.375Z,96.50
2023-05-14T22:21:14.093Z,96.60
2023-05-14T22:23:43.906Z,96.70
2023-05-14T22:26:13.807Z,96.80
2023-05-14T22:28:44.832Z,96.90
2023-05-14T22:31:14.501Z,97.10
2023-05-14T22:33:44.201Z,97.10
2023-05-14T22:36:13.930Z,97.20
2023-05-14T22:38:45.408Z,97.40
2023-05-14T22:41:15.276Z,97.50
2023-05-14T22:43:45.001Z,97.60
2023-05-14T22:46:15.115Z,97.70
2023-05-14T22:48:44.700Z,97.80
2023-05-14T22:51:14.276Z,98.00
2023-05-14T22:53:43.920Z,98.10
2023-05-14T22:56:13.743Z,98.20
2023-05-14T22:58:43.363Z,98.40
2023-05-14T23:01:13.050Z,98.50
2023-05-14T23:03:42.758Z,98.70
2023-05-14T23:06:15.318Z,99.00
2023-05-14T23:08:44.952Z,99.10
2023-05-14T23:11:14.995Z,99.10
2023-05-14T23:13:44.620Z,99.10
2023-05-14T23:16:14.328Z,99.10
2023-05-14T23:18:44.404Z,99.20
2023-05-14T23:21:15.289Z,99.20
2023-05-14T23:23:44.935Z,99.20
2023-05-14T23:26:14.621Z,99.20
2023-05-14T23:28:44.372Z,99.20
2023-05-14T23:31:13.988Z,99.20
2023-05-14T23:33:46.189Z,99.30
2023-05-14T23:36:15.931Z,99.40
2023-05-14T23:38:45.926Z,99.40
2023-05-14T23:41:15.666Z,99.50
2023-05-14T23:43:45.351Z,99.50
2023-05-14T23:46:15.114Z,99.60
2023-05-14T23:48:45.056Z,99.60
2023-05-14T23:51:14.632Z,99.60
2023-05-14T23:53:44.213Z,99.50
2023-05-14T23:56:14.595Z,99.50
2023-05-14T23:58:44.201Z,99.50
